Time;durP1;ratioP1;P1;durP2;ratioP2;P2;SDS_P1;SDS_P2;PMS_P1;PMS_P2;Temp;Humidity;BMP_temperature;BMP_pressure;BME280_temperature;BME280_humidity;BME280_pressure;Samples;Min_cycle;Max_cycle;Signal;HPM_P1;HPM_P2
2022/07/01 00:01:59;;;;;;;10.70;4.88;;;15.60;99.90;;;;;;4993536;28;20201;-81
2022/07/01 00:04:27;;;;;;;19.58;5.63;;;15.50;99.90;;;;;;4993783;28;20208;-81
2022/07/01 00:06:54;;;;;;;8.63;4.43;;;15.30;99.90;;;;;;4993443;28;20585;-80
2022/07/01 00:09:20;;;;;;;7.45;5.18;;;15.20;99.90;;;;;;4992949;28;20185;-80
2022/07/01 00:11:46;;;;;;;9.50;4.63;;;15.30;99.90;;;;;;4993321;28;20164;-80
2022/07/01 00:14:11;;;;;;;9.27;4.97;;;15.40;99.90;;;;;;4992127;28;20181;-81
2022/07/01 00:16:37;;;;;;;7.70;4.68;;;15.30;99.90;;;;;;4993090;28;20257;-80
2022/07/01 00:19:03;;;;;;;10.63;4.95;;;15.20;99.90;;;;;;4993160;28;20307;-80
2022/07/01 00:21:29;;;;;;;7.97;4.55;;;15.10;99.90;;;;;;4991523;28;20173;-81
2022/07/01 00:23:55;;;;;;;9.98;5.43;;;15.10;99.90;;;;;;4993006;28;20196;-81
2022/07/01 00:26:21;;;;;;;7.47;4.35;;;15.10;99.90;;;;;;4993249;28;20188;-80
2022/07/01 00:28:46;;;;;;;7.75;5.55;;;15.10;99.90;;;;;;4992660;28;20687;-80
2022/07/01 00:31:12;;;;;;;19.35;5.72;;;15.00;99.90;;;;;;4991952;28;20181;-81
2022/07/01 00:33:37;;;;;;;9.60;4.78;;;15.00;99.90;;;;;;4993141;28;20161;-81
2022/07/01 00:36:03;;;;;;;14.88;5.78;;;15.00;99.90;;;;;;4992070;28;20169;-81
2022/07/01 00:38:29;;;;;;;11.68;5.10;;;14.90;99.90;;;;;;4992755;28;20287;-80
2022/07/01 00:40:55;;;;;;;15.65;5.28;;;14.80;99.90;;;;;;4992853;28;20217;-80
2022/07/01 00:43:24;;;;;;;10.43;5.40;;;14.80;99.90;;;;;;4991481;28;20172;-81
2022/07/01 00:45:50;;;;;;;10.48;4.75;;;14.90;99.90;;;;;;4992585;28;20172;-80
2022/07/01 00:48:16;;;;;;;9.05;5.40;;;14.90;99.90;;;;;;4992463;28;20202;-80
2022/07/01 00:50:42;;;;;;;15.65;6.07;;;14.90;99.90;;;;;;4993153;28;20729;-81
2022/07/01 00:53:08;;;;;;;10.82;6.18;;;15.00;99.90;;;;;;4992762;28;20248;-81
2022/07/01 00:55:34;;;;;;;10.02;5.63;;;15.00;99.90;;;;;;4992884;28;20212;-81
2022/07/01 00:57:59;;;;;;;12.38;6.05;;;15.10;99.90;;;;;;4992615;28;20240;-80
2022/07/01 01:00:28;;;;;;;14.57;4.82;;;15.00;99.90;;;;;;4991406;28;20173;-81
2022/07/01 01:02:54;;;;;;;8.20;4.53;;;15.10;99.90;;;;;;4991266;28;20169;-81
2022/07/01 01:05:21;;;;;;;11.50;6.03;;;15.10;99.90;;;;;;4992588;28;20277;-80
2022/07/01 01:07:50;;;;;;;18.05;5.75;;;14.90;99.90;;;;;;4992801;28;20177;-80
2022/07/01 01:10:16;;;;;;;10.27;5.40;;;14.80;99.90;;;;;;4992751;28;20533;-80
2022/07/01 01:12:42;;;;;;;7.28;5.35;;;14.80;99.90;;;;;;4992610;28;20630;-80
2022/07/01 01:15:08;;;;;;;6.43;5.68;;;14.90;99.90;;;;;;4991473;28;20223;-80
2022/07/01 01:17:34;;;;;;;13.60;5.95;;;15.00;99.90;;;;;;4992611;28;20188;-80
2022/07/01 01:19:59;;;;;;;12.30;6.90;;;15.00;99.90;;;;;;4991149;28;20550;-80
2022/07/01 01:22:25;;;;;;;12.40;6.07;;;15.00;99.90;;;;;;4992612;28;20173;-80
2022/07/01 01:24:51;;;;;;;14.95;6.15;;;15.10;99.90;;;;;;4992712;28;20611;-80
2022/07/01 01:27:16;;;;;;;17.27;6.72;;;15.10;99.90;;;;;;4991270;28;20174;-81
2022/07/01 01:29:43;;;;;;;7.10;5.45;;;15.20;99.90;;;;;;4992601;28;20221;-80
2022/07/01 01:32:09;;;;;;;14.05;6.35;;;15.30;99.90;;;;;;4991678;28;20215;-81
2022/07/01 01:34:37;;;;;;;7.70;5.45;;;15.00;99.90;;;;;;4991320;28;20269;-81
2022/07/01 01:37:03;;;;;;;15.73;6.05;;;15.10;99.90;;;;;;4991348;28;20192;-81
2022/07/01 01:39:29;;;;;;;14.40;6.55;;;15.20;99.90;;;;;;4991213;28;20685;-81
2022/07/01 01:41:55;;;;;;;12.45;5.32;;;15.20;99.90;;;;;;4992663;28;20238;-80
2022/07/01 01:44:20;;;;;;;15.15;5.70;;;15.10;99.90;;;;;;4992579;28;20192;-81
2022/07/01 01:46:46;;;;;;;9.90;6.18;;;15.20;99.90;;;;;;4992434;28;20629;-81
2022/07/01 01:49:12;;;;;;;9.60;5.85;;;15.20;99.90;;;;;;4995725;28;20545;-81
2022/07/01 01:51:38;;;;;;;15.35;6.32;;;15.40;99.90;;;;;;4996253;28;20248;-81
2022/07/01 01:54:03;;;;;;;10.32;5.82;;;15.40;99.90;;;;;;4996311;28;20169;-81
2022/07/01 01:56:29;;;;;;;9.30;6.30;;;15.40;99.90;;;;;;4997282;28;20248;-81
2022/07/01 01:58:56;;;;;;;12.00;6.63;;;15.30;99.90;;;;;;4997965;28;20280;-81
2022/07/01 02:01:22;;;;;;;16.20;6.40;;;15.30;99.90;;;;;;4997932;28;20162;-80
2022/07/01 02:03:49;;;;;;;14.65;5.70;;;15.30;99.90;;;;;;4999427;28;20173;-80
2022/07/01 02:06:17;;;;;;;23.42;6.60;;;15.30;99.90;;;;;;4999878;28;20166;-81
2022/07/01 02:08:42;;;;;;;12.48;5.47;;;15.40;99.90;;;;;;5001426;28;20514;-81
2022/07/01 02:11:09;;;;;;;18.73;5.35;;;15.40;99.90;;;;;;4999605;28;20176;-80
2022/07/01 02:13:35;;;;;;;13.23;5.65;;;15.20;99.90;;;;;;5005838;28;20168;-80
2022/07/01 02:16:02;;;;;;;21.15;5.75;;;15.30;99.90;;;;;;5007960;28;20182;-80
2022/07/01 02:18:28;;;;;;;12.38;6.43;;;15.20;99.90;;;;;;5012702;28;20247;-80
2022/07/01 02:20:54;;;;;;;13.23;5.78;;;15.10;99.90;;;;;;5012422;28;20698;-81
2022/07/01 02:23:21;;;;;;;19.33;6.22;;;15.10;99.90;;;;;;5010322;28;20165;-80
2022/07/01 02:25:47;;;;;;;11.02;5.93;;;15.20;99.90;;;;;;5011360;28;20157;-81
2022/07/01 02:28:13;;;;;;;8.38;5.35;;;15.20;99.90;;;;;;5007486;28;20275;-81
2022/07/01 02:30:39;;;;;;;9.57;5.05;;;15.00;99.90;;;;;;5010993;28;20161;-81
2022/07/01 02:33:06;;;;;;;12.85;5.25;;;14.80;99.90;;;;;;5002058;28;20618;-80
2022/07/01 02:35:36;;;;;;;22.80;5.32;;;14.90;99.90;;;;;;5007942;28;20165;-80
2022/07/01 02:38:03;;;;;;;5.70;5.15;;;14.90;99.90;;;;;;4996188;28;20212;-80
2022/07/01 02:40:29;;;;;;;7.93;5.25;;;14.90;99.90;;;;;;4995179;28;20179;-80
2022/07/01 02:42:55;;;;;;;17.63;6.03;;;14.90;99.90;;;;;;4994120;28;20170;-79
2022/07/01 02:45:21;;;;;;;14.45;5.22;;;14.70;99.90;;;;;;4994845;28;20176;-80
2022/07/01 02:47:46;;;;;;;5.78;4.80;;;14.90;99.90;;;;;;4995262;28;20252;-81
2022/07/01 02:50:13;;;;;;;12.07;5.60;;;14.90;99.90;;;;;;4993775;28;20177;-80
2022/07/01 02:52:41;;;;;;;8.23;5.40;;;14.80;99.90;;;;;;5009710;28;20200;-80
2022/07/01 02:55:08;;;;;;;12.73;5.28;;;14.90;99.90;;;;;;4993564;28;20165;-80
2022/07/01 02:57:34;;;;;;;13.07;5.43;;;15.00;99.90;;;;;;4994576;28;20264;-78
2022/07/01 03:00:01;;;;;;;9.23;5.75;;;15.10;99.90;;;;;;4992342;28;20263;-80
2022/07/01 03:02:26;;;;;;;11.77;5.90;;;14.90;99.90;;;;;;4994753;28;20172;-80
2022/07/01 03:04:53;;;;;;;11.95;5.43;;;14.80;99.90;;;;;;4994762;28;20178;-79
2022/07/01 03:07:20;;;;;;;7.75;4.88;;;14.80;99.90;;;;;;4993169;28;20530;-79
2022/07/01 03:09:46;;;;;;;6.70;5.63;;;14.90;99.90;;;;;;4992891;28;20654;-79
2022/07/01 03:12:25;;;;;;;12.93;5.40;;;14.70;99.90;;;;;;4994646;28;20256;-80
2022/07/01 03:15:03;;;;;;;7.53;5.88;;;14.50;99.90;;;;;;5009666;28;20169;-79
2022/07/01 03:17:31;;;;;;;9.23;5.28;;;14.50;99.90;;;;;;4992955;28;20169;-80
2022/07/01 03:19:57;;;;;;;6.10;5.60;;;14.50;99.90;;;;;;4992904;28;20224;-80
2022/07/01 03:22:25;;;;;;;10.82;6.50;;;14.40;99.90;;;;;;4993280;28;20170;-80
2022/07/01 03:24:52;;;;;;;16.02;6.75;;;14.20;99.90;;;;;;4992921;28;20180;-79
2022/07/01 03:27:18;;;;;;;8.85;6.78;;;14.30;99.90;;;;;;4992907;28;20719;-80
2022/07/01 03:29:44;;;;;;;8.48;7.65;;;14.10;99.90;;;;;;4992722;28;20251;-80
2022/07/01 03:32:10;;;;;;;25.77;8.25;;;14.10;99.90;;;;;;4992209;28;20193;-80
2022/07/01 03:34:41;;;;;;;17.17;8.60;;;14.30;99.90;;;;;;4993757;28;20183;-80
2022/07/01 03:37:08;;;;;;;17.58;9.02;;;14.40;99.90;;;;;;4992247;28;20239;-81
2022/07/01 03:39:36;;;;;;;21.88;10.25;;;14.40;99.90;;;;;;4993535;28;20571;-80
2022/07/01 03:42:04;;;;;;;13.32;9.60;;;14.40;99.90;;;;;;4992668;28;20165;-80
2022/07/01 03:44:29;;;;;;;23.25;9.70;;;14.50;99.90;;;;;;4992448;28;20264;-80
2022/07/01 03:46:55;;;;;;;17.25;9.65;;;14.40;99.90;;;;;;4992570;28;20200;-79
2022/07/01 03:49:22;;;;;;;26.55;9.95;;;14.50;99.90;;;;;;4993727;28;20193;-81
2022/07/01 03:51:48;;;;;;;17.73;10.07;;;14.70;99.90;;;;;;4992419;28;20223;-80
2022/07/01 03:54:29;;;;;;;14.95;10.07;;;14.80;99.90;;;;;;4993615;28;20634;-79
2022/07/01 03:56:59;;;;;;;10.43;9.40;;;14.50;99.90;;;;;;4993751;28;20629;-80
2022/07/01 03:59:25;;;;;;;14.38;10.20;;;14.40;99.90;;;;;;4993551;28;20712;-80
2022/07/01 04:01:52;;;;;;;19.58;9.77;;;14.40;99.90;;;;;;4993393;28;20700;-80
2022/07/01 04:04:18;;;;;;;18.67;9.15;;;14.50;99.90;;;;;;4992225;28;20268;-80
2022/07/01 04:06:45;;;;;;;15.57;8.35;;;14.30;99.90;;;;;;4993746;28;20201;-80
2022/07/01 04:09:12;;;;;;;19.27;9.02;;;14.50;99.90;;;;;;4993522;28;20219;-80
2022/07/01 04:11:38;;;;;;;10.40;8.07;;;14.50;99.90;;;;;;4993550;28;20311;-80
2022/07/01 04:14:04;;;;;;;17.33;8.60;;;14.60;99.90;;;;;;4993322;28;20244;-80
2022/07/01 04:16:30;;;;;;;13.52;7.57;;;14.50;99.90;;;;;;4993285;28;20754;-80
2022/07/01 04:18:56;;;;;;;12.23;8.13;;;14.50;99.90;;;;;;4991869;28;20239;-80
2022/07/01 04:24:06;;;;;;;8.07;6.78;;;14.50;99.90;;;;;;4993695;28;20310;-81
2022/07/01 04:26:32;;;;;;;12.02;7.40;;;14.50;99.90;;;;;;4992105;28;20172;-80
2022/07/01 04:28:58;;;;;;;12.77;7.57;;;14.50;99.90;;;;;;4991868;28;20197;-79
2022/07/01 04:31:23;;;;;;;9.90;6.55;;;14.60;99.90;;;;;;4993331;28;20173;-82
2022/07/01 04:33:49;;;;;;;7.78;6.90;;;14.70;99.90;;;;;;4991786;28;20181;-80
2022/07/01 04:36:16;;;;;;;13.35;6.47;;;14.60;99.90;;;;;;4992912;28;20196;-81
2022/07/01 04:38:41;;;;;;;16.65;7.18;;;14.70;99.90;;;;;;4991856;28;20205;-81
2022/07/01 04:43:51;;;;;;;11.60;4.68;;;14.70;99.90;;;;;;4992882;28;20223;-81
2022/07/01 04:46:17;;;;;;;9.68;4.53;;;14.80;99.90;;;;;;4993129;28;20173;-80
2022/07/01 04:48:42;;;;;;;7.13;4.15;;;14.50;99.90;;;;;;4991369;28;20263;-80
2022/07/01 04:51:08;;;;;;;10.77;3.65;;;14.60;99.90;;;;;;4992818;28;20165;-80
2022/07/01 04:53:34;;;;;;;11.95;3.60;;;14.80;99.90;;;;;;4991220;28;20203;-80
2022/07/01 04:55:59;;;;;;;7.68;3.80;;;14.90;99.90;;;;;;4992758;28;20196;-80
2022/07/01 04:58:25;;;;;;;7.85;3.03;;;15.00;99.90;;;;;;4992878;28;20251;-80
2022/07/01 05:00:52;;;;;;;6.50;2.97;;;15.10;99.90;;;;;;4992906;28;20183;-81
2022/07/01 05:03:17;;;;;;;13.82;3.10;;;15.30;99.90;;;;;;4992462;28;20249;-80
2022/07/01 05:05:43;;;;;;;4.72;3.00;;;15.50;99.90;;;;;;4992641;28;20256;-81
2022/07/01 05:08:09;;;;;;;6.35;2.30;;;15.60;99.90;;;;;;4992520;28;20181;-79
2022/07/01 05:10:34;;;;;;;7.18;2.05;;;15.50;99.90;;;;;;4992526;28;20177;-80
2022/07/01 05:13:00;;;;;;;7.32;2.55;;;15.20;99.90;;;;;;4992593;28;20170;-80
2022/07/01 05:15:26;;;;;;;2.47;2.28;;;15.10;99.90;;;;;;4991491;28;20553;-80
2022/07/01 05:23:20;;;;;;;3.47;2.22;;;15.20;99.90;;;;;;4994791;28;20223;-80
2022/07/01 05:25:46;;;;;;;4.82;1.73;;;15.20;99.90;;;;;;4996193;28;20684;-80
2022/07/01 05:28:12;;;;;;;12.93;2.35;;;15.00;99.90;;;;;;4995784;28;20211;-79
2022/07/01 05:30:38;;;;;;;12.77;2.67;;;15.00;99.90;;;;;;4996587;28;20689;-80
2022/07/01 05:33:03;;;;;;;5.90;2.53;;;15.10;99.90;;;;;;4995407;28;20698;-81
2022/07/01 05:35:29;;;;;;;6.75;2.28;;;15.10;99.90;;;;;;4996147;28;20185;-80
2022/07/01 05:37:55;;;;;;;8.32;2.33;;;15.30;99.90;;;;;;4994641;28;20197;-79
2022/07/01 05:40:21;;;;;;;17.27;2.33;;;15.40;99.90;;;;;;4996086;28;20611;-79
2022/07/01 05:42:46;;;;;;;5.95;2.17;;;15.40;99.90;;;;;;4994498;28;20192;-80
2022/07/01 05:45:12;;;;;;;5.95;2.13;;;15.50;99.90;;;;;;4995745;28;20170;-79
2022/07/01 05:47:37;;;;;;;3.28;1.67;;;15.60;99.90;;;;;;5010950;28;20204;-79
2022/07/01 05:50:03;;;;;;;2.13;1.58;;;15.40;99.90;;;;;;4994536;28;20335;-79
2022/07/01 05:52:29;;;;;;;5.70;2.08;;;15.60;99.90;;;;;;4995974;28;20169;-80
2022/07/01 05:54:55;;;;;;;13.20;2.53;;;15.70;99.90;;;;;;4994283;28;20176;-78
2022/07/01 05:57:20;;;;;;;3.33;2.35;;;15.70;99.90;;;;;;4995563;28;20296;-81
2022/07/01 05:59:46;;;;;;;5.07;1.65;;;15.70;99.90;;;;;;4995516;28;20215;-78
2022/07/01 06:02:11;;;;;;;6.90;2.00;;;15.80;99.90;;;;;;4995596;28;20169;-78
2022/07/01 06:04:37;;;;;;;4.00;2.25;;;15.90;99.90;;;;;;4995509;28;20169;-80
2022/07/01 06:07:03;;;;;;;3.35;1.55;;;15.70;99.90;;;;;;4995194;28;20169;-81
2022/07/01 06:09:28;;;;;;;6.97;1.98;;;15.80;99.90;;;;;;4993821;28;20197;-79
2022/07/01 06:11:54;;;;;;;4.30;2.08;;;15.90;99.90;;;;;;5010587;28;20656;-80
2022/07/01 06:14:20;;;;;;;4.47;1.70;;;15.90;99.90;;;;;;5010369;28;20180;-80
2022/07/01 06:16:45;;;;;;;8.48;2.13;;;15.80;99.90;;;;;;4995313;28;20653;-80
2022/07/01 06:19:11;;;;;;;11.27;2.25;;;16.00;99.90;;;;;;4995245;28;20204;-80
2022/07/01 06:21:36;;;;;;;3.30;2.10;;;16.20;99.90;;;;;;4995249;28;20181;-80
2022/07/01 06:24:02;;;;;;;8.55;1.70;;;16.30;99.90;;;;;;4993878;28;20174;-80
2022/07/01 06:26:28;;;;;;;12.52;1.83;;;16.50;99.90;;;;;;4995794;28;20173;-80
2022/07/01 06:28:53;;;;;;;5.05;2.17;;;16.50;99.90;;;;;;4995233;28;20196;-80
2022/07/01 06:31:19;;;;;;;12.57;2.00;;;16.60;99.90;;;;;;4995219;28;20521;-79
2022/07/01 06:33:45;;;;;;;2.15;1.45;;;16.60;99.90;;;;;;4993872;28;20169;-78
2022/07/01 06:36:10;;;;;;;4.85;1.63;;;16.60;99.90;;;;;;4994604;28;20261;-79
2022/07/01 06:38:36;;;;;;;5.15;1.65;;;16.70;99.90;;;;;;4994671;28;20704;-79
2022/07/01 06:43:46;;;;;;;6.18;2.05;;;16.70;99.90;;;;;;4994972;28;20224;-79
2022/07/01 06:46:11;;;;;;;3.85;2.00;;;16.70;99.90;;;;;;4994826;28;20170;-80
2022/07/01 06:48:37;;;;;;;4.00;1.60;;;16.90;99.90;;;;;;4994587;28;20200;-79
2022/07/01 06:51:03;;;;;;;14.77;1.30;;;16.90;99.90;;;;;;4994517;28;20184;-82
2022/07/01 06:53:29;;;;;;;4.50;1.20;;;17.10;99.90;;;;;;4994889;28;20193;-82
2022/07/01 06:55:54;;;;;;;16.48;1.60;;;17.40;99.90;;;;;;4994858;28;20341;-80
2022/07/01 06:58:20;;;;;;;6.85;1.08;;;17.80;99.90;;;;;;4994114;28;20654;-80
2022/07/01 07:00:46;;;;;;;7.35;1.45;;;19.00;99.90;;;;;;4994472;28;20243;-80
2022/07/01 07:03:11;;;;;;;13.68;1.83;;;20.00;99.90;;;;;;4992108;28;20606;-80
2022/07/01 07:05:37;;;;;;;2.65;1.33;;;20.50;99.90;;;;;;4992604;28;20185;-80
2022/07/01 07:08:03;;;;;;;1.88;0.82;;;21.40;99.90;;;;;;4993038;28;20213;-80
2022/07/01 07:10:29;;;;;;;7.72;1.48;;;21.80;99.90;;;;;;4994624;28;20172;-80
2022/07/01 07:12:55;;;;;;;12.27;3.45;;;22.70;99.90;;;;;;4994410;28;20537;-80
2022/07/01 07:15:21;;;;;;;10.07;1.33;;;23.30;99.90;;;;;;4994126;28;20171;-80
2022/07/01 07:17:46;;;;;;;8.95;1.40;;;23.90;99.90;;;;;;4993073;28;20191;-81
2022/07/01 07:20:12;;;;;;;2.22;1.30;;;24.60;99.90;;;;;;4994004;28;20216;-80
2022/07/01 07:22:38;;;;;;;5.35;1.10;;;24.40;99.90;;;;;;4994094;28;20174;-85
2022/07/01 07:25:04;;;;;;;9.57;1.25;;;24.50;99.90;;;;;;4994348;28;20586;-81
2022/07/01 07:27:29;;;;;;;2.90;0.68;;;23.60;99.90;;;;;;4993677;28;20161;-77
2022/07/01 07:29:55;;;;;;;3.40;0.90;;;23.00;99.90;;;;;;4993634;28;20523;-81
2022/07/01 07:32:21;;;;;;;4.30;0.88;;;23.00;99.90;;;;;;4994068;28;20203;-80
2022/07/01 07:34:46;;;;;;;9.75;1.50;;;23.30;99.90;;;;;;4994004;28;20177;-79
2022/07/01 07:37:12;;;;;;;6.30;0.75;;;23.60;99.90;;;;;;4993941;28;20185;-80
2022/07/01 07:39:37;;;;;;;5.50;0.88;;;23.10;99.90;;;;;;4993954;28;20213;-80
2022/07/01 07:42:05;;;;;;;4.70;0.75;;;23.70;99.90;;;;;;4994344;28;20161;-80
2022/07/01 07:44:31;;;;;;;1.85;0.65;;;23.60;99.90;;;;;;4992569;28;20173;-80
2022/07/01 07:46:57;;;;;;;4.88;1.15;;;24.30;99.90;;;;;;4992382;28;20166;-80
2022/07/01 07:49:23;;;;;;;2.67;0.88;;;24.20;99.90;;;;;;4994062;28;20193;-80
2022/07/01 07:51:49;;;;;;;8.25;0.90;;;23.40;99.90;;;;;;4992447;28;20664;-80
2022/07/01 07:54:15;;;;;;;14.80;1.25;;;23.30;99.90;;;;;;4992322;28;20169;-80
2022/07/01 07:56:41;;;;;;;9.93;1.13;;;23.10;99.90;;;;;;4993632;28;20188;-80
2022/07/01 07:59:06;;;;;;;8.82;1.10;;;22.70;99.90;;;;;;4993428;28;20263;-82
2022/07/01 08:01:32;;;;;;;4.05;0.88;;;21.60;99.90;;;;;;4993773;28;20543;-80
2022/07/01 08:03:59;;;;;;;7.43;0.82;;;21.80;99.90;;;;;;4993484;28;20231;-81
2022/07/01 08:06:25;;;;;;;2.38;0.90;;;21.50;99.90;;;;;;5008260;28;20220;-80
2022/07/01 08:08:50;;;;;;;7.43;1.00;;;21.20;99.90;;;;;;4993297;28;20526;-79
2022/07/01 08:11:16;;;;;;;2.50;0.65;;;20.80;99.90;;;;;;4993391;28;20184;-80
2022/07/01 08:13:43;;;;;;;3.30;1.00;;;20.70;99.90;;;;;;4993373;28;20165;-82
2022/07/01 08:16:09;;;;;;;6.00;1.15;;;20.70;99.90;;;;;;4992974;28;20169;-79
2022/07/01 08:18:35;;;;;;;3.60;0.80;;;20.80;99.90;;;;;;4991824;28;20250;-79
2022/07/01 08:21:00;;;;;;;1.90;0.90;;;20.90;99.90;;;;;;4992061;28;20264;-80
2022/07/01 08:23:26;;;;;;;4.60;1.33;;;21.10;99.90;;;;;;4993014;28;20166;-81
2022/07/01 08:25:51;;;;;;;6.55;1.35;;;21.10;99.90;;;;;;4993175;28;20180;-80
2022/07/01 08:28:17;;;;;;;2.15;0.70;;;20.90;99.90;;;;;;4992637;28;20185;-81
2022/07/01 08:30:44;;;;;;;2.17;0.70;;;20.50;99.90;;;;;;4993382;28;20544;-82
2022/07/01 08:33:10;;;;;;;2.25;0.60;;;20.50;99.90;;;;;;4992279;28;20252;-80
2022/07/01 08:35:36;;;;;;;1.80;0.70;;;20.60;99.90;;;;;;4991954;28;20192;-82
2022/07/01 08:38:02;;;;;;;1.83;0.65;;;20.40;99.90;;;;;;4992880;28;20212;-80
2022/07/01 08:40:30;;;;;;;4.68;1.15;;;20.60;99.90;;;;;;4993050;28;20209;-80
2022/07/01 08:43:04;;;;;;;3.80;1.20;;;20.70;99.90;;;;;;4993407;28;20180;-82
2022/07/01 08:45:34;;;;;;;4.60;0.93;;;20.70;99.90;;;;;;4993197;28;20173;-82
2022/07/01 08:48:00;;;;;;;3.25;0.45;;;21.10;99.90;;;;;;4993179;28;20168;-80
2022/07/01 08:50:31;;;;;;;1.08;0.63;;;21.30;99.90;;;;;;4992811;28;20184;-82
2022/07/01 08:52:58;;;;;;;0.88;0.50;;;21.50;99.90;;;;;;4992527;28;20170;-81
2022/07/01 08:55:24;;;;;;;3.38;0.98;;;21.60;99.90;;;;;;4992794;28;20197;-82
2022/07/01 08:57:50;;;;;;;3.17;0.73;;;21.50;99.90;;;;;;4994121;28;20165;-81
2022/07/01 09:00:17;;;;;;;8.93;0.85;;;21.80;99.90;;;;;;4996789;28;20295;-80
2022/07/01 09:02:57;;;;;;;4.68;0.73;;;21.40;99.90;;;;;;4995557;28;20173;-81
2022/07/01 09:05:26;;;;;;;5.47;0.60;;;21.00;99.90;;;;;;5001303;28;20157;-80
2022/07/01 09:08:06;;;;;;;3.38;0.90;;;21.20;99.90;;;;;;4996857;28;20173;-82
2022/07/01 09:10:35;;;;;;;5.40;0.90;;;20.70;99.90;;;;;;4997111;28;20629;-80
2022/07/01 09:13:07;;;;;;;5.38;0.90;;;21.00;99.90;;;;;;4997268;28;20680;-81
2022/07/01 09:15:33;;;;;;;1.17;0.70;;;21.20;99.90;;;;;;4995892;28;20661;-79
2022/07/01 09:18:20;;;;;;;3.03;0.90;;;21.40;99.90;;;;;;4995735;28;20629;-81
2022/07/01 09:20:50;;;;;;;9.75;1.40;;;21.30;99.90;;;;;;4997269;28;20650;-80
2022/07/01 09:23:17;;;;;;;2.85;0.77;;;21.50;99.90;;;;;;5000808;28;20165;-81
2022/07/01 09:25:47;;;;;;;2.58;0.85;;;21.20;99.90;;;;;;5000070;28;20166;-82
2022/07/01 09:28:21;;;;;;;5.93;0.85;;;21.30;99.90;;;;;;5000543;28;20185;-82
2022/07/01 09:30:48;;;;;;;3.58;0.73;;;21.50;99.90;;;;;;4998583;28;20170;-80
2022/07/01 09:33:16;;;;;;;1.52;0.80;;;21.70;99.90;;;;;;4995825;28;20169;-82
2022/07/01 09:35:43;;;;;;;5.25;0.90;;;21.80;99.90;;;;;;4996949;28;20169;-81
2022/07/01 09:38:17;;;;;;;6.38;0.95;;;21.90;99.90;;;;;;4995725;28;20209;-81
2022/07/01 09:40:50;;;;;;;8.43;0.95;;;21.80;99.90;;;;;;4995415;28;20181;-80
2022/07/01 09:43:17;;;;;;;4.20;1.08;;;21.60;99.90;;;;;;4996465;28;20268;-80
2022/07/01 09:45:56;;;;;;;6.30;1.00;;;21.30;99.90;;;;;;4996419;28;20164;-81
2022/07/01 09:48:25;;;;;;;3.38;1.10;;;21.30;99.90;;;;;;5003648;28;20197;-80
2022/07/01 09:50:51;;;;;;;2.30;1.13;;;21.20;99.90;;;;;;4998705;28;20170;-82
2022/07/01 09:53:18;;;;;;;5.95;0.95;;;21.40;99.90;;;;;;4997257;28;20169;-80
2022/07/01 09:55:43;;;;;;;1.30;0.70;;;21.40;99.90;;;;;;5002963;28;20244;-81
2022/07/01 09:58:09;;;;;;;3.08;1.55;;;21.50;99.90;;;;;;4998730;28;20247;-80
2022/07/01 10:00:37;;;;;;;0.85;0.57;;;21.70;99.90;;;;;;4999851;28;20545;-80
2022/07/01 10:03:05;;;;;;;1.45;0.90;;;21.90;99.90;;;;;;4997405;28;20169;-82
2022/07/01 10:05:39;;;;;;;6.00;1.30;;;22.10;99.90;;;;;;4994733;28;20201;-80
2022/07/01 10:08:16;;;;;;;2.70;0.60;;;22.10;99.90;;;;;;4995906;28;20260;-81
2022/07/01 10:11:18;;;;;;;4.55;1.27;;;22.60;99.90;;;;;;4996009;28;20183;-85
2022/07/01 10:13:45;;;;;;;2.08;0.70;;;22.50;99.90;;;;;;4995774;28;20243;-80
2022/07/01 10:16:11;;;;;;;3.47;0.82;;;22.40;99.90;;;;;;4995013;28;20184;-80
2022/07/01 10:18:37;;;;;;;5.15;0.95;;;22.40;99.90;;;;;;4995518;28;20232;-80
2022/07/01 10:21:04;;;;;;;1.77;0.80;;;22.30;99.90;;;;;;4995858;28;20201;-82
2022/07/01 10:23:42;;;;;;;1.48;0.98;;;22.40;99.90;;;;;;4994838;28;20529;-82
2022/07/01 10:26:10;;;;;;;1.85;0.82;;;22.40;99.90;;;;;;4995730;28;20165;-81
2022/07/01 10:28:41;;;;;;;4.13;1.40;;;22.40;99.90;;;;;;4996584;28;20189;-81
2022/07/01 10:31:13;;;;;;;1.77;1.05;;;22.00;99.90;;;;;;4996348;28;20189;-80
2022/07/01 10:33:46;;;;;;;0.65;0.60;;;21.80;99.90;;;;;;5013307;28;20188;-81
2022/07/01 10:36:14;;;;;;;1.70;0.82;;;21.30;99.90;;;;;;4994390;28;20469;-80
2022/07/01 10:39:08;;;;;;;0.98;0.70;;;21.40;99.90;;;;;;4995838;28;20208;-80
2022/07/01 10:41:41;;;;;;;4.45;0.55;;;21.80;99.90;;;;;;4995617;28;20185;-81
2022/07/01 10:44:12;;;;;;;4.75;0.75;;;22.10;99.90;;;;;;4993921;28;20200;-80
2022/07/01 10:46:40;;;;;;;3.42;0.90;;;22.20;99.90;;;;;;4993679;28;20182;-81
2022/07/01 10:49:12;;;;;;;6.43;0.70;;;22.10;99.90;;;;;;4995434;28;20869;-80
2022/07/01 10:51:51;;;;;;;0.80;0.50;;;22.20;99.90;;;;;;5002087;28;20189;-83
2022/07/01 10:54:43;;;;;;;7.40;0.52;;;22.10;99.90;;;;;;4994784;28;20173;-80
2022/07/01 10:57:23;;;;;;;4.88;0.60;;;22.10;99.90;;;;;;4995702;28;20168;-80
2022/07/01 10:59:54;;;;;;;2.40;0.47;;;21.80;99.90;;;;;;5000057;28;20205;-82
2022/07/01 11:02:21;;;;;;;4.75;0.55;;;21.80;99.90;;;;;;4995156;28;20536;-81
2022/07/01 11:04:49;;;;;;;2.50;0.60;;;21.90;99.90;;;;;;4995203;28;20203;-81
2022/07/01 11:07:15;;;;;;;1.35;0.50;;;21.90;99.90;;;;;;4994752;28;20169;-82
2022/07/01 11:09:40;;;;;;;5.55;0.77;;;22.10;99.90;;;;;;4994820;28;20720;-82
2022/07/01 11:12:07;;;;;;;2.85;0.45;;;22.10;99.90;;;;;;4995320;28;20169;-84
2022/07/01 11:14:38;;;;;;;3.78;0.60;;;22.40;99.90;;;;;;4993441;28;20541;-81
2022/07/01 11:17:04;;;;;;;2.60;0.60;;;22.50;99.90;;;;;;4994518;28;20171;-83
2022/07/01 11:19:30;;;;;;;1.00;0.55;;;22.40;99.90;;;;;;4993425;28;20217;-82
2022/07/01 11:21:56;;;;;;;0.95;0.52;;;22.40;99.90;;;;;;4993980;28;20525;-81
2022/07/01 11:24:22;;;;;;;4.13;0.52;;;22.40;99.90;;;;;;4993167;28;20638;-82
2022/07/01 11:26:49;;;;;;;2.15;0.65;;;22.40;99.90;;;;;;4993349;28;20169;-81
2022/07/01 11:29:25;;;;;;;3.40;1.10;;;22.50;99.90;;;;;;4994000;28;20327;-81
2022/07/01 11:31:51;;;;;;;4.20;1.00;;;22.70;99.90;;;;;;4994652;28;20510;-82
2022/07/01 11:34:18;;;;;;;1.80;0.60;;;22.90;99.90;;;;;;4997101;28;20253;-84
2022/07/01 11:39:35;;;;;;;3.53;0.60;;;22.70;99.90;;;;;;5000691;28;20700;-86
2022/07/01 11:42:04;;;;;;;3.58;0.60;;;22.70;99.90;;;;;;4994190;28;20645;-85
2022/07/01 11:44:34;;;;;;;5.18;0.85;;;22.80;99.90;;;;;;4996444;28;20656;-85
2022/07/01 11:47:03;;;;;;;2.28;0.55;;;22.70;99.90;;;;;;4996137;28;20585;-81
2022/07/01 11:49:29;;;;;;;2.70;0.60;;;22.80;99.90;;;;;;5001144;28;20221;-84
2022/07/01 11:52:04;;;;;;;2.72;0.40;;;22.90;99.90;;;;;;5004144;28;20253;-84
2022/07/01 11:54:35;;;;;;;1.40;0.50;;;23.00;99.90;;;;;;4985010;28;20185;-84
2022/07/01 11:57:21;;;;;;;2.03;0.60;;;23.10;99.90;;;;;;5002320;28;20654;-84
2022/07/01 11:59:48;;;;;;;1.98;0.63;;;23.00;99.90;;;;;;5007891;28;20300;-84
2022/07/01 12:02:18;;;;;;;1.92;0.60;;;23.30;99.90;;;;;;5006127;28;20172;-85
2022/07/01 12:04:44;;;;;;;1.08;0.60;;;23.40;99.90;;;;;;4989338;28;20209;-82
2022/07/01 12:07:12;;;;;;;1.80;0.70;;;23.60;99.90;;;;;;5008728;28;20174;-86
2022/07/01 12:09:38;;;;;;;1.33;1.20;;;23.50;99.90;;;;;;4988547;28;20416;-85
2022/07/01 12:12:04;;;;;;;0.80;0.45;;;23.30;99.90;;;;;;4998896;28;20197;-81
2022/07/01 12:14:33;;;;;;;9.10;0.50;;;23.00;99.90;;;;;;4995647;28;20544;-81
2022/07/01 12:17:05;;;;;;;0.63;0.40;;;22.90;99.90;;;;;;4996262;28;20681;-85
2022/07/01 12:19:41;;;;;;;2.10;0.68;;;22.90;99.90;;;;;;4997884;28;20216;-86
2022/07/01 12:22:10;;;;;;;1.80;0.70;;;22.80;99.90;;;;;;4997007;28;20165;-81
2022/07/01 12:24:36;;;;;;;6.43;0.30;;;22.90;99.90;;;;;;4995272;28;20200;-81
2022/07/01 12:27:04;;;;;;;5.47;0.55;;;22.70;99.90;;;;;;4995591;28;20270;-84
2022/07/01 12:29:52;;;;;;;1.98;0.43;;;22.60;99.90;;;;;;4997033;28;20193;-82
2022/07/01 12:32:23;;;;;;;9.43;0.68;;;22.70;99.90;;;;;;4995241;28;20177;-82
2022/07/01 12:35:00;;;;;;;5.88;0.35;;;22.70;99.90;;;;;;4995187;28;20264;-82
2022/07/01 12:37:28;;;;;;;1.55;0.55;;;22.90;99.90;;;;;;4993633;28;20189;-84
2022/07/01 12:40:21;;;;;;;2.85;0.95;;;23.10;99.90;;;;;;4995052;28;20201;-81
2022/07/01 12:42:47;;;;;;;4.82;0.60;;;23.20;99.90;;;;;;4993637;28;20177;-82
2022/07/01 12:45:15;;;;;;;1.08;0.55;;;22.90;99.90;;;;;;4997741;28;20177;-82
2022/07/01 12:47:44;;;;;;;1.60;0.80;;;22.80;99.90;;;;;;5014910;28;20173;-82
2022/07/01 12:50:11;;;;;;;3.63;0.47;;;23.10;99.90;;;;;;5007366;28;20240;-82
2022/07/01 12:52:38;;;;;;;7.28;0.77;;;23.10;99.90;;;;;;4994363;28;20665;-82
2022/07/01 12:55:18;;;;;;;3.47;0.63;;;23.10;99.90;;;;;;4995203;28;20247;-81
2022/07/01 12:57:52;;;;;;;0.63;0.50;;;23.20;99.90;;;;;;4996115;28;20191;-82
2022/07/01 13:00:19;;;;;;;0.88;0.50;;;23.30;99.90;;;;;;4992995;28;20216;-82
2022/07/01 13:02:45;;;;;;;0.40;0.40;;;23.70;99.90;;;;;;4994444;28;20174;-82